Time;durP1;ratioP1;P1;durP2;ratioP2;P2;SDS_P1;SDS_P2;PMS_P1;PMS_P2;Temp;Humidity;BMP_temperature;BMP_pressure;BME280_temperature;BME280_humidity;BME280_pressure;Samples;Min_cycle;Max_cycle;Signal;HPM_P1;HPM_P2
2022/07/17 00:00:16;;;;;;;3.20;2.00;;;;;;;24.85;41.43;102789.28;4712380;30;20047;-83
2022/07/17 00:02:42;;;;;;;2.20;1.75;;;;;;;24.82;41.16;102791.44;4716181;30;21813;-84
2022/07/17 00:05:07;;;;;;;3.72;2.30;;;;;;;24.84;41.51;102787.59;4700163;30;20049;-82
2022/07/17 00:07:33;;;;;;;2.17;1.88;;;;;;;24.80;41.26;102772.13;4719158;30;20127;-83
2022/07/17 00:09:58;;;;;;;2.67;1.98;;;;;;;24.80;41.39;102775.63;4718428;30;20114;-83
2022/07/17 00:12:24;;;;;;;2.85;2.13;;;;;;;24.81;41.53;102782.63;4706642;30;20130;-83
2022/07/17 00:14:50;;;;;;;2.20;1.90;;;;;;;24.72;41.66;102778.25;4711865;30;20045;-83
2022/07/17 00:17:15;;;;;;;2.72;1.95;;;;;;;24.79;41.45;102783.78;4728923;30;20068;-83
2022/07/17 00:19:41;;;;;;;3.90;2.03;;;;;;;24.69;41.28;102771.44;4716849;30;20072;-83
2022/07/17 00:22:07;;;;;;;2.40;1.65;;;;;;;24.73;41.68;102779.09;4718716;30;20084;-83
2022/07/17 00:24:32;;;;;;;2.55;2.17;;;;;;;24.66;41.41;102770.94;4718463;30;20094;-84
2022/07/17 00:26:58;;;;;;;2.33;1.90;;;;;;;24.59;41.75;102777.91;4726776;30;20051;-84
2022/07/17 00:29:24;;;;;;;2.92;1.88;;;;;;;24.68;41.81;102777.78;4702175;30;20048;-84
2022/07/17 00:31:49;;;;;;;2.47;1.90;;;;;;;24.67;41.56;102778.78;4715572;30;20044;-85
2022/07/17 00:34:15;;;;;;;2.65;2.10;;;;;;;24.67;41.65;102764.63;4717345;30;20076;-84
2022/07/17 00:36:40;;;;;;;3.97;2.10;;;;;;;24.54;41.61;102749.13;4712875;30;20052;-84
2022/07/17 00:39:06;;;;;;;2.13;1.65;;;;;;;24.55;41.90;102777.41;4718027;30;20679;-85
2022/07/17 00:41:32;;;;;;;2.80;2.20;;;;;;;24.47;41.76;102758.78;4731053;30;20780;-84
2022/07/17 00:44:09;;;;;;;3.65;1.88;;;;;;;24.50;41.91;102781.56;4714902;30;20048;-84
2022/07/17 00:46:35;;;;;;;3.25;2.10;;;;;;;24.66;41.93;102778.94;4716887;30;20043;-83
2022/07/17 00:49:01;;;;;;;2.75;1.95;;;;;;;24.59;41.93;102776.06;4715336;30;20049;-84
2022/07/17 00:51:27;;;;;;;3.05;1.77;;;;;;;24.57;41.74;102779.91;4704541;30;20063;-84
2022/07/17 00:53:53;;;;;;;2.60;1.92;;;;;;;24.53;41.82;102768.75;4705181;30;20052;-84
2022/07/17 00:56:22;;;;;;;4.47;2.10;;;;;;;24.51;42.00;102775.25;4718391;30;20056;-83
2022/07/17 00:58:49;;;;;;;3.50;2.35;;;;;;;24.55;41.87;102765.94;4724486;30;20133;-84
2022/07/17 01:01:15;;;;;;;2.60;1.85;;;;;;;24.57;41.87;102775.41;4719349;30;20037;-84
2022/07/17 01:03:40;;;;;;;2.92;1.90;;;;;;;24.43;42.02;102760.09;4706291;30;20056;-84
2022/07/17 01:06:07;;;;;;;3.38;2.28;;;;;;;24.54;41.64;102764.25;4731344;30;20917;-85
2022/07/17 01:08:33;;;;;;;2.42;1.65;;;;;;;24.47;42.26;102768.59;4717609;30;20052;-84
2022/07/17 01:10:59;;;;;;;2.42;1.90;;;;;;;24.55;41.87;102761.44;4701274;30;20115;-84
2022/07/17 01:13:26;;;;;;;4.43;2.28;;;;;;;24.48;42.02;102764.94;4720048;30;20048;-84
2022/07/17 01:15:51;;;;;;;3.05;2.00;;;;;;;24.50;42.00;102761.09;4723073;30;20114;-84
2022/07/17 01:18:17;;;;;;;2.30;2.10;;;;;;;24.39;42.10;102756.06;4720565;30;20044;-85
2022/07/17 01:20:46;;;;;;;2.08;1.88;;;;;;;24.50;42.02;102768.25;4716309;30;20049;-88
2022/07/17 01:23:13;;;;;;;2.28;1.58;;;;;;;24.47;42.07;102761.44;4711456;30;20045;-85
2022/07/17 01:25:38;;;;;;;2.75;1.90;;;;;;;24.44;42.08;102766.25;4716859;30;20040;-85
2022/07/17 01:28:04;;;;;;;3.90;1.83;;;;;;;24.43;42.31;102760.09;4718277;30;20044;-86
2022/07/17 01:30:31;;;;;;;3.28;1.95;;;;;;;24.39;42.01;102756.06;4718686;30;20040;-85
2022/07/17 01:32:56;;;;;;;2.50;1.90;;;;;;;24.43;42.03;102757.44;4717285;30;20076;-85
2022/07/17 01:35:21;;;;;;;1.88;1.65;;;;;;;24.38;42.04;102755.25;4718160;30;20189;-84
2022/07/17 01:37:47;;;;;;;4.13;2.15;;;;;;;24.40;42.10;102760.41;4720204;30;20104;-85
2022/07/17 01:40:15;;;;;;;2.80;1.77;;;;;;;24.34;42.22;102761.91;4711734;30;20473;-85
2022/07/17 01:42:47;;;;;;;4.03;1.98;;;;;;;24.41;42.00;102775.38;4721767;30;20056;-85
2022/07/17 01:45:13;;;;;;;2.15;1.80;;;;;;;24.45;42.01;102784.72;4718170;30;20041;-85
2022/07/17 01:47:39;;;;;;;5.10;1.75;;;;;;;24.38;41.85;102781.03;4716508;30;20459;-85
2022/07/17 01:50:06;;;;;;;2.50;1.98;;;;;;;24.43;41.94;102786.72;4718768;30;20057;-85
2022/07/17 01:52:35;;;;;;;1.83;1.60;;;;;;;24.31;42.14;102788.84;4719002;30;20048;-86
2022/07/17 01:55:00;;;;;;;3.00;1.88;;;;;;;24.36;42.23;102793.69;4723487;30;20087;-86
2022/07/17 01:57:26;;;;;;;3.88;2.20;;;;;;;24.34;42.12;102787.69;4720944;30;20841;-85
2022/07/17 01:59:51;;;;;;;2.85;2.17;;;;;;;24.37;41.97;102788.19;4720625;30;20064;-85
2022/07/17 02:02:17;;;;;;;4.43;1.95;;;;;;;24.30;42.11;102773.88;4712432;30;20040;-85
2022/07/17 02:04:43;;;;;;;3.40;1.75;;;;;;;24.09;42.29;102750.34;4719326;30;20055;-84
2022/07/17 02:07:09;;;;;;;2.70;1.83;;;;;;;24.34;42.15;102787.69;4687639;30;21287;-84
2022/07/17 02:09:35;;;;;;;2.63;1.92;;;;;;;24.40;42.05;102797.69;4720085;30;20048;-84
2022/07/17 02:12:01;;;;;;;2.83;1.80;;;;;;;24.33;42.17;102797.50;4724618;30;20048;-84
2022/07/17 02:14:27;;;;;;;2.33;1.70;;;;;;;24.25;42.19;102793.97;4721804;30;20055;-84
2022/07/17 02:16:53;;;;;;;2.67;1.70;;;;;;;24.25;42.18;102792.16;4718047;30;20068;-84
2022/07/17 02:19:18;;;;;;;2.78;1.58;;;;;;;24.24;42.32;102795.81;4719480;30;20048;-84
2022/07/17 02:21:44;;;;;;;2.90;1.70;;;;;;;24.29;42.27;102813.97;4720201;30;20122;-83
2022/07/17 02:24:09;;;;;;;3.22;1.67;;;;;;;24.33;42.27;102807.31;4704661;30;20048;-83
2022/07/17 02:26:35;;;;;;;1.92;1.63;;;;;;;24.29;42.18;102811.31;4717649;30;20106;-83
2022/07/17 02:29:01;;;;;;;3.33;1.83;;;;;;;24.21;42.45;102811.25;4716095;30;20626;-84
2022/07/17 02:31:26;;;;;;;2.90;1.90;;;;;;;24.17;42.22;102788.59;4714886;30;20520;-84
2022/07/17 02:33:52;;;;;;;3.05;1.77;;;;;;;24.14;42.50;102791.59;4704436;30;20587;-84
2022/07/17 02:36:17;;;;;;;3.35;1.92;;;;;;;24.16;42.47;102810.91;4718432;30;20051;-84
2022/07/17 02:38:43;;;;;;;3.05;2.00;;;;;;;24.20;42.45;102804.25;4719015;30;20071;-83
2022/07/17 02:41:08;;;;;;;1.90;1.70;;;;;;;24.30;42.21;102803.16;4718467;30;20114;-84
2022/07/17 02:43:34;;;;;;;3.55;2.05;;;;;;;24.17;42.41;102794.75;4718490;30;20044;-84
2022/07/17 02:46:00;;;;;;;2.85;1.70;;;;;;;24.16;42.47;102789.59;4702318;30;22354;-84
2022/07/17 02:48:26;;;;;;;3.08;1.95;;;;;;;24.20;42.45;102786.44;4714450;30;20056;-84
2022/07/17 02:50:51;;;;;;;2.88;1.80;;;;;;;24.18;42.46;102776.97;4719469;30;20059;-84
2022/07/17 02:53:17;;;;;;;1.92;1.63;;;;;;;24.06;42.10;102760.47;4721001;30;20451;-84
2022/07/17 02:55:42;;;;;;;2.38;1.73;;;;;;;24.14;42.31;102759.66;4700820;30;20048;-83
2022/07/17 02:58:08;;;;;;;1.83;1.70;;;;;;;24.12;42.42;102762.47;4719438;30;20819;-84
2022/07/17 03:00:33;;;;;;;3.50;1.90;;;;;;;23.96;42.31;102736.66;4716286;30;20065;-85
2022/07/17 03:02:59;;;;;;;3.40;2.00;;;;;;;24.18;42.42;102776.97;4702957;30;20041;-85
2022/07/17 03:05:24;;;;;;;3.72;2.25;;;;;;;24.11;42.27;102777.63;4717580;30;20053;-86
2022/07/17 03:07:50;;;;;;;2.05;1.52;;;;;;;24.13;42.40;102787.28;4707202;30;20053;-86
2022/07/17 03:10:15;;;;;;;1.80;1.70;;;;;;;24.10;42.50;102799.91;4719307;30;20045;-85
2022/07/17 03:12:42;;;;;;;1.70;1.60;;;;;;;24.16;42.33;102803.75;4722535;30;20041;-85
2022/07/17 03:15:08;;;;;;;2.20;1.77;;;;;;;24.15;42.42;102804.75;4717304;30;20044;-85
2022/07/17 03:17:35;;;;;;;2.78;1.70;;;;;;;24.15;42.40;102787.94;4717907;30;20154;-85
2022/07/17 03:20:01;;;;;;;3.70;1.92;;;;;;;24.10;42.40;102797.25;4704596;30;20183;-85
2022/07/17 03:22:26;;;;;;;4.78;2.25;;;;;;;24.02;42.55;102794.53;4725461;30;20037;-85
2022/07/17 03:24:52;;;;;;;1.60;1.50;;;;;;;24.03;42.62;102808.69;4720147;30;20040;-85
2022/07/17 03:27:17;;;;;;;2.97;1.65;;;;;;;24.06;42.47;102803.91;4717194;30;20044;-86
2022/07/17 03:29:45;;;;;;;2.72;1.83;;;;;;;24.05;42.51;102815.50;4716162;30;20754;-85
2022/07/17 03:32:11;;;;;;;2.63;1.50;;;;;;;24.02;42.70;102809.69;4711513;30;20056;-86
2022/07/17 03:34:37;;;;;;;4.05;2.25;;;;;;;24.00;42.57;102804.50;4727238;30;20044;-86
2022/07/17 03:37:03;;;;;;;1.90;1.60;;;;;;;24.00;42.28;102801.84;4714703;30;20577;-86
2022/07/17 03:39:29;;;;;;;2.80;1.92;;;;;;;24.04;42.41;102807.69;4720668;30;20143;-86
2022/07/17 03:41:55;;;;;;;2.58;1.70;;;;;;;24.04;42.73;102792.53;4718129;30;20717;-85
2022/07/17 03:44:21;;;;;;;1.60;1.50;;;;;;;24.03;42.63;102795.38;4718324;30;20039;-84
2022/07/17 03:46:46;;;;;;;2.17;1.67;;;;;;;24.03;42.61;102790.06;4717018;30;20043;-85
2022/07/17 03:49:12;;;;;;;2.72;1.90;;;;;;;24.01;42.57;102789.38;4732275;30;20053;-85
2022/07/17 03:51:37;;;;;;;2.67;1.63;;;;;;;23.96;42.39;102791.69;4719227;30;20064;-85
2022/07/17 03:54:03;;;;;;;2.60;1.80;;;;;;;23.98;42.50;102790.53;4716278;30;20056;-85
2022/07/17 03:56:28;;;;;;;2.50;1.73;;;;;;;23.93;42.80;102797.34;4716637;30;20201;-85
2022/07/17 03:58:54;;;;;;;2.50;1.73;;;;;;;23.97;42.51;102799.50;4716387;30;20824;-85
2022/07/17 04:01:19;;;;;;;2.88;1.58;;;;;;;23.96;42.71;102795.19;4718390;30;20059;-85
2022/07/17 04:03:45;;;;;;;1.70;1.60;;;;;;;23.94;42.84;102799.84;4718339;30;20056;-85
2022/07/17 04:06:10;;;;;;;2.38;1.73;;;;;;;23.75;42.36;102765.50;4717351;30;20044;-85
2022/07/17 04:08:36;;;;;;;2.97;1.92;;;;;;;23.92;42.50;102788.53;4719886;30;20048;-85
2022/07/17 04:11:02;;;;;;;2.95;1.85;;;;;;;23.85;42.72;102779.50;4698208;30;20118;-85
2022/07/17 04:13:28;;;;;;;2.13;1.75;;;;;;;23.93;42.44;102787.53;4721004;30;20067;-84
2022/07/17 04:15:55;;;;;;;2.22;1.90;;;;;;;23.98;42.42;102795.84;4703511;30;20067;-85
2022/07/17 04:18:29;;;;;;;2.03;1.80;;;;;;;23.91;42.51;102802.81;4716708;30;20040;-84
2022/07/17 04:20:57;;;;;;;2.78;1.50;;;;;;;23.94;42.79;102807.00;4714328;30;20041;-85
2022/07/17 04:23:23;;;;;;;2.05;1.67;;;;;;;23.90;42.74;102806.47;4715725;30;20037;-85
2022/07/17 04:25:49;;;;;;;1.60;1.50;;;;;;;23.85;42.56;102800.78;4717507;30;20055;-85
2022/07/17 04:28:15;;;;;;;2.45;1.60;;;;;;;23.86;42.71;102822.91;4717135;30;20048;-85
2022/07/17 04:30:41;;;;;;;1.92;1.73;;;;;;;23.80;42.73;102797.78;4714874;30;20125;-84
2022/07/17 04:33:06;;;;;;;1.60;1.50;;;;;;;23.94;42.54;102822.97;4717674;30;20119;-85
2022/07/17 04:35:33;;;;;;;1.98;1.65;;;;;;;23.90;42.68;102827.78;4719281;30;20052;-84
2022/07/17 04:37:58;;;;;;;2.03;1.55;;;;;;;23.88;42.51;102823.56;4721741;30;20765;-84
2022/07/17 04:40:24;;;;;;;1.70;1.60;;;;;;;23.86;42.86;102829.06;4722946;30;20041;-84
2022/07/17 04:42:50;;;;;;;3.22;1.63;;;;;;;23.92;42.71;102824.94;4718335;30;20080;-84
2022/07/17 04:45:15;;;;;;;3.67;1.60;;;;;;;23.86;42.78;102831.72;4718504;30;20040;-84
2022/07/17 04:47:41;;;;;;;3.42;2.10;;;;;;;23.87;42.72;102824.56;4716849;30;20207;-84
2022/07/17 04:50:08;;;;;;;2.80;2.20;;;;;;;23.71;42.76;102802.22;4720513;30;20106;-84
2022/07/17 04:52:34;;;;;;;1.80;1.50;;;;;;;23.83;42.92;102816.06;4707253;30;20616;-83
2022/07/17 04:54:59;;;;;;;2.08;1.63;;;;;;;23.74;43.00;102809.06;4705378;30;20049;-83
2022/07/17 04:57:25;;;;;;;1.50;1.40;;;;;;;23.75;42.78;102800.91;4720787;30;20060;-84
2022/07/17 04:59:53;;;;;;;3.92;1.70;;;;;;;23.76;42.86;102823.88;4722125;30;20056;-86
2022/07/17 05:02:19;;;;;;;2.25;1.85;;;;;;;23.82;42.75;102822.38;4719053;30;20080;-86
2022/07/17 05:04:44;;;;;;;2.88;1.50;;;;;;;23.74;42.83;102803.72;4700915;30;20048;-86
2022/07/17 05:07:10;;;;;;;1.50;1.40;;;;;;;23.84;42.77;102806.25;4717347;30;20048;-86
2022/07/17 05:09:35;;;;;;;2.58;1.80;;;;;;;23.80;42.47;102803.94;4720498;30;20693;-86
2022/07/17 05:12:01;;;;;;;2.40;1.63;;;;;;;23.75;42.97;102778.81;4721559;30;20052;-86
2022/07/17 05:14:27;;;;;;;2.10;1.70;;;;;;;23.66;43.00;102777.91;4700929;30;20990;-87
2022/07/17 05:16:52;;;;;;;2.35;1.90;;;;;;;23.74;42.96;102799.25;4717670;30;20095;-84
2022/07/17 05:19:18;;;;;;;2.97;1.70;;;;;;;23.73;42.74;102799.41;4718044;30;20942;-84
2022/07/17 05:21:43;;;;;;;2.58;1.80;;;;;;;23.78;42.92;102800.59;4721655;30;20061;-87
2022/07/17 05:24:09;;;;;;;2.70;1.75;;;;;;;23.83;42.81;102818.72;4691746;30;20044;-87
2022/07/17 05:26:34;;;;;;;2.30;1.95;;;;;;;23.73;42.84;102807.38;4723528;30;20044;-85
2022/07/17 05:29:00;;;;;;;2.08;1.55;;;;;;;23.75;42.87;102813.38;4720758;30;20045;-85
2022/07/17 05:31:25;;;;;;;2.45;1.73;;;;;;;23.73;42.86;102818.88;4717683;30;20417;-85
2022/07/17 05:33:51;;;;;;;2.35;1.60;;;;;;;23.68;42.84;102807.84;4687154;30;20055;-84
2022/07/17 05:36:17;;;;;;;2.08;1.80;;;;;;;23.61;43.02;102800.66;4689884;30;20416;-85
2022/07/17 05:38:43;;;;;;;2.03;1.70;;;;;;;23.68;43.08;102826.47;4677781;30;20044;-85
2022/07/17 05:41:09;;;;;;;2.38;1.77;;;;;;;23.67;43.05;102845.25;4708132;30;20028;-84
2022/07/17 05:43:34;;;;;;;2.22;1.80;;;;;;;23.69;43.19;102832.63;4720549;30;20109;-84
2022/07/17 05:46:00;;;;;;;2.35;1.80;;;;;;;23.72;43.12;102842.97;4720289;30;20040;-84
2022/07/17 05:48:26;;;;;;;2.50;1.67;;;;;;;23.73;42.98;102829.50;4717672;30;20049;-85
2022/07/17 05:50:52;;;;;;;3.92;2.00;;;;;;;23.75;42.85;102832.84;4716105;30;20049;-84
2022/07/17 05:53:18;;;;;;;2.40;1.60;;;;;;;23.66;43.15;102823.13;4720672;30;20059;-84
2022/07/17 05:55:43;;;;;;;2.58;1.80;;;;;;;23.66;42.89;102831.09;4720095;30;20037;-84
2022/07/17 05:58:10;;;;;;;1.90;1.70;;;;;;;23.70;43.10;102847.59;4721840;30;20056;-85
2022/07/17 06:00:35;;;;;;;2.38;1.88;;;;;;;23.75;42.83;102847.97;4717890;30;20059;-83
2022/07/17 06:03:01;;;;;;;2.60;1.92;;;;;;;23.69;43.13;102845.91;4717575;30;20094;-83
2022/07/17 06:05:27;;;;;;;2.60;1.70;;;;;;;23.72;43.06;102846.47;4717371;30;20052;-84
2022/07/17 06:07:54;;;;;;;1.67;1.55;;;;;;;23.78;42.68;102848.47;4719116;30;20044;-83
2022/07/17 06:10:19;;;;;;;2.75;1.55;;;;;;;23.76;42.98;102842.50;4730814;30;20036;-84
2022/07/17 06:12:45;;;;;;;1.70;1.60;;;;;;;23.77;42.91;102853.97;4720385;30;20075;-84
2022/07/17 06:15:11;;;;;;;3.65;1.80;;;;;;;23.79;42.81;102854.63;4720386;30;20048;-85
2022/07/17 06:17:37;;;;;;;3.03;1.67;;;;;;;23.76;42.85;102854.94;4719121;30;20098;-85
2022/07/17 06:20:03;;;;;;;1.58;1.45;;;;;;;23.70;42.79;102855.59;4716851;30;20077;-85
2022/07/17 06:22:28;;;;;;;3.28;1.42;;;;;;;23.75;42.91;102872.75;4714982;30;20040;-86
2022/07/17 06:24:54;;;;;;;3.00;1.40;;;;;;;23.74;42.94;102867.56;4721098;30;20076;-85
2022/07/17 06:27:20;;;;;;;2.38;1.77;;;;;;;23.63;43.00;102851.88;4717827;30;20044;-85
2022/07/17 06:29:46;;;;;;;1.92;1.50;;;;;;;23.73;43.03;102872.06;4720733;30;20040;-85
2022/07/17 06:32:11;;;;;;;4.20;1.60;;;;;;;23.70;43.13;102863.56;4718928;30;20518;-84
2022/07/17 06:34:37;;;;;;;1.70;1.60;;;;;;;23.70;43.03;102863.56;4716990;30;20135;-84
2022/07/17 06:37:03;;;;;;;1.40;1.30;;;;;;;23.84;42.71;102873.59;4718197;30;20045;-84
2022/07/17 06:39:28;;;;;;;2.47;1.63;;;;;;;23.93;42.72;102870.03;4720983;30;20056;-84
2022/07/17 06:41:54;;;;;;;2.13;1.48;;;;;;;23.90;42.71;102861.53;4717207;30;20048;-84
2022/07/17 06:44:20;;;;;;;1.48;1.38;;;;;;;23.93;42.86;102862.03;4718437;30;20044;-87
2022/07/17 06:46:45;;;;;;;2.17;1.60;;;;;;;23.90;42.67;102851.72;4716619;30;20033;-84
2022/07/17 06:49:11;;;;;;;2.38;1.45;;;;;;;23.96;42.67;102853.72;4692524;30;20060;-85
2022/07/17 06:51:36;;;;;;;3.17;1.50;;;;;;;23.99;42.68;102847.25;4717889;30;20061;-85
2022/07/17 06:54:02;;;;;;;1.40;1.30;;;;;;;24.00;42.69;102855.06;4718453;30;20554;-84
2022/07/17 06:56:28;;;;;;;1.50;1.40;;;;;;;24.02;42.55;102854.91;4715155;30;20394;-87
2022/07/17 06:58:53;;;;;;;1.50;1.40;;;;;;;23.96;42.78;102850.25;4721400;30;20056;-86
2022/07/17 07:01:19;;;;;;;2.30;1.52;;;;;;;23.98;42.61;102859.72;4715483;30;20048;-85
2022/07/17 07:03:44;;;;;;;2.00;1.50;;;;;;;23.98;42.44;102850.91;4711944;30;21723;-84
2022/07/17 07:06:10;;;;;;;3.08;1.60;;;;;;;23.83;42.66;102829.38;4715683;30;20043;-85
2022/07/17 07:08:36;;;;;;;2.03;1.35;;;;;;;23.92;42.71;102844.41;4717106;30;20063;-84
2022/07/17 07:11:02;;;;;;;2.35;1.42;;;;;;;23.89;42.83;102835.91;4700754;30;20041;-84
2022/07/17 07:13:29;;;;;;;2.15;1.70;;;;;;;24.01;42.72;102858.56;4719942;30;20079;-84
2022/07/17 07:15:54;;;;;;;1.92;1.40;;;;;;;23.95;42.89;102865.38;4715368;30;20072;-84
2022/07/17 07:18:21;;;;;;;2.40;1.30;;;;;;;23.93;42.66;102863.88;4715984;30;20381;-83
2022/07/17 07:20:46;;;;;;;1.55;1.45;;;;;;;23.98;42.58;102866.88;4719545;30;20081;-83
2022/07/17 07:23:12;;;;;;;2.33;1.67;;;;;;;23.99;42.77;102869.38;4716857;30;20129;-85
2022/07/17 07:25:37;;;;;;;2.10;1.50;;;;;;;23.91;42.82;102866.69;4689905;30;20045;-85
2022/07/17 07:28:04;;;;;;;2.80;1.58;;;;;;;23.91;42.71;102871.19;4731094;30;20048;-85
2022/07/17 07:30:29;;;;;;;2.58;1.73;;;;;;;23.95;42.54;102873.34;4715084;30;20048;-82
2022/07/17 07:32:55;;;;;;;3.25;1.70;;;;;;;23.92;42.62;102871.00;4685483;30;20082;-83
2022/07/17 07:35:20;;;;;;;2.85;1.60;;;;;;;23.93;42.67;102883.31;4720973;30;20037;-83
2022/07/17 07:37:46;;;;;;;1.52;1.20;;;;;;;23.93;42.66;102885.97;4717699;30;20493;-85
2022/07/17 07:40:12;;;;;;;1.77;1.38;;;;;;;23.91;42.69;102885.31;4705204;30;20045;-81
2022/07/17 07:42:38;;;;;;;2.28;1.33;;;;;;;23.91;42.67;102889.81;4716492;30;20105;-80
2022/07/17 07:45:04;;;;;;;2.80;1.58;;;;;;;23.88;42.71;102887.44;4721626;30;20040;-81
2022/07/17 07:47:29;;;;;;;2.72;1.80;;;;;;;23.90;42.52;102894.28;4717141;30;20067;-82
2022/07/17 07:49:55;;;;;;;2.75;1.50;;;;;;;23.74;42.40;102879.06;4703355;30;20546;-82
2022/07/17 07:52:20;;;;;;;2.58;1.50;;;;;;;23.85;42.04;102890.41;4719669;30;21054;-83
2022/07/17 07:54:46;;;;;;;3.10;1.90;;;;;;;23.88;42.12;102895.41;4731606;30;20109;-82
2022/07/17 07:57:12;;;;;;;2.42;1.55;;;;;;;23.92;42.10;102894.97;4714275;30;20052;-83
2022/07/17 07:59:38;;;;;;;1.77;1.45;;;;;;;23.88;42.19;102882.09;4704691;30;20072;-85
2022/07/17 08:02:04;;;;;;;1.88;1.35;;;;;;;23.95;42.13;102894.63;4715134;30;20483;-85
2022/07/17 08:04:30;;;;;;;1.98;1.60;;;;;;;23.85;42.30;102885.91;4721220;30;20120;-84
2022/07/17 08:06:55;;;;;;;1.50;1.35;;;;;;;23.90;42.27;102893.47;4718074;30;20059;-86
2022/07/17 08:09:21;;;;;;;2.67;1.70;;;;;;;23.90;42.46;102888.97;4719014;30;20053;-86
2022/07/17 08:11:46;;;;;;;3.03;1.48;;;;;;;23.88;42.65;102893.63;4715574;30;20176;-90
2022/07/17 08:14:12;;;;;;;2.28;1.38;;;;;;;23.91;42.33;102901.28;4707694;30;20150;-93
2022/07/17 08:16:37;;;;;;;2.65;1.35;;;;;;;23.95;42.38;102901.78;4719322;30;20529;-91
2022/07/17 08:19:03;;;;;;;3.10;1.48;;;;;;;23.96;42.20;102904.28;4719409;30;20048;-90
2022/07/17 08:21:29;;;;;;;1.65;1.38;;;;;;;23.96;42.34;102909.63;4706547;30;20036;-91
2022/07/17 08:23:54;;;;;;;4.18;1.80;;;;;;;23.96;42.28;102904.28;4705519;30;20051;-90
2022/07/17 08:26:20;;;;;;;5.40;1.40;;;;;;;24.00;42.27;102910.13;4717263;30;20049;-90
2022/07/17 08:28:46;;;;;;;2.42;1.33;;;;;;;23.93;42.15;102899.28;4716891;30;20094;-89
2022/07/17 08:31:11;;;;;;;2.30;1.55;;;;;;;23.99;42.07;102911.13;4719650;30;20037;-88
2022/07/17 08:33:37;;;;;;;2.03;1.42;;;;;;;24.00;42.13;102905.63;4720037;30;20049;-88
2022/07/17 08:36:03;;;;;;;2.25;1.45;;;;;;;23.93;41.82;102899.28;4720722;30;20680;-88
2022/07/17 08:38:28;;;;;;;4.68;1.65;;;;;;;23.97;42.12;102902.47;4721827;30;20075;-87
2022/07/17 08:40:54;;;;;;;2.05;1.50;;;;;;;24.00;41.82;102902.16;4716263;30;20049;-88
2022/07/17 08:43:20;;;;;;;1.98;1.38;;;;;;;24.10;41.87;102913.53;4716115;30;20045;-89
2022/07/17 08:45:47;;;;;;;5.32;1.67;;;;;;;24.16;41.55;102917.38;4716967;30;20120;-89
2022/07/17 08:48:15;;;;;;;1.75;1.50;;;;;;;24.04;41.81;102903.50;4712317;30;20044;-88
2022/07/17 08:50:42;;;;;;;4.47;1.85;;;;;;;24.10;41.83;102890.41;4716128;30;20102;-88
2022/07/17 08:53:07;;;;;;;2.63;1.80;;;;;;;24.14;41.42;102906.06;4716970;30;20082;-88
2022/07/17 08:55:34;;;;;;;4.75;1.58;;;;;;;24.09;41.65;102893.22;4718936;30;20053;-89
2022/07/17 08:57:59;;;;;;;3.15;1.55;;;;;;;24.15;41.73;102908.56;4712921;30;20052;-87
2022/07/17 09:00:25;;;;;;;2.03;1.30;;;;;;;24.14;41.73;102898.91;4716928;30;20083;-88
2022/07/17 09:03:03;;;;;;;2.25;1.45;;;;;;;24.18;41.44;102896.75;4717074;30;20732;-87
2022/07/17 09:05:37;;;;;;;4.88;1.67;;;;;;;24.11;41.49;102880.59;4717831;30;20497;-87
2022/07/17 09:08:05;;;;;;;3.05;1.70;;;;;;;24.20;41.69;102898.25;4716704;30;21239;-87
2022/07/17 09:10:42;;;;;;;4.97;1.70;;;;;;;24.14;41.48;102882.94;4717158;30;20045;-89
2022/07/17 09:13:29;;;;;;;1.63;1.48;;;;;;;24.15;41.41;102883.75;4704379;30;20051;-87
2022/07/17 09:16:09;;;;;;;3.28;1.58;;;;;;;24.05;41.43;102860.75;4710673;30;20076;-88
2022/07/17 09:18:50;;;;;;;2.45;1.23;;;;;;;24.24;41.69;102886.31;4717960;30;20067;-89
2022/07/17 09:21:27;;;;;;;3.65;1.70;;;;;;;24.17;41.90;102879.94;4720297;30;20481;-89
2022/07/17 09:24:00;;;;;;;3.72;1.98;;;;;;;24.24;41.77;102881.00;4721836;30;20040;-90
2022/07/17 09:26:26;;;;;;;3.55;1.95;;;;;;;24.10;41.72;102871.78;4725807;30;20032;-90
2022/07/17 09:28:52;;;;;;;3.17;1.65;;;;;;;24.16;41.29;102867.63;4719724;30;20536;-89
2022/07/17 09:31:29;;;;;;;3.28;1.70;;;;;;;24.29;40.88;102885.88;4705406;30;20467;-89
2022/07/17 09:33:55;;;;;;;2.10;1.60;;;;;;;24.37;40.74;102880.56;4714154;30;20642;-90
2022/07/17 09:36:21;;;;;;;3.45;1.75;;;;;;;24.37;40.63;102881.41;4719437;30;20634;-90
2022/07/17 09:38:51;;;;;;;3.00;1.90;;;;;;;24.33;40.25;102871.22;4721103;30;20052;-90
2022/07/17 09:41:20;;;;;;;4.13;1.83;;;;;;;24.36;40.33;102881.56;4722461;30;20036;-90
2022/07/17 09:43:50;;;;;;;4.50;1.70;;;;;;;24.38;40.91;102890.22;4716002;30;20047;-90
2022/07/17 09:46:20;;;;;;;2.90;1.60;;;;;;;24.35;40.41;102888.72;4720780;30;20580;-89
2022/07/17 09:48:49;;;;;;;4.97;1.70;;;;;;;24.39;40.36;102883.91;4716015;30;20056;-89
2022/07/17 09:51:20;;;;;;;5.50;2.22;;;;;;;24.28;40.60;102870.84;4714177;30;20068;-90
2022/07/17 09:53:47;;;;;;;4.05;1.90;;;;;;;24.33;39.54;102882.72;4717509;30;20049;-89
2022/07/17 09:56:18;;;;;;;10.57;2.13;;;;;;;23.95;40.27;102867.19;4703468;30;20171;-88
2022/07/17 09:58:48;;;;;;;5.60;2.60;;;;;;;23.82;40.68;102856.97;4712748;30;20040;-87
2022/07/17 10:01:15;;;;;;;2.88;1.90;;;;;;;24.15;40.67;102867.78;4719530;30;20524;-87
2022/07/17 10:03:42;;;;;;;4.65;1.80;;;;;;;24.33;40.76;102879.22;4718186;30;20040;-91
2022/07/17 10:06:10;;;;;;;3.00;1.73;;;;;;;24.34;40.72;102876.41;4722639;30;20467;-91
2022/07/17 10:08:37;;;;;;;4.05;1.90;;;;;;;24.36;40.84;102873.56;4706895;30;20094;-91
2022/07/17 10:11:07;;;;;;;4.88;1.88;;;;;;;24.16;41.09;102845.50;4704815;30;21288;-89
2022/07/17 10:13:45;;;;;;;3.20;1.63;;;;;;;24.16;41.04;102848.16;4714108;30;20052;-88
2022/07/17 10:16:11;;;;;;;2.88;2.03;;;;;;;24.37;41.08;102876.06;4719948;30;20131;-88
2022/07/17 10:18:44;;;;;;;2.72;1.80;;;;;;;24.31;41.29;102874.06;4703933;30;20598;-90
2022/07/17 10:21:15;;;;;;;3.00;1.80;;;;;;;24.24;41.45;102859.69;4717006;30;20143;-90
2022/07/17 10:24:05;;;;;;;3.17;1.70;;;;;;;24.33;41.27;102871.22;4722165;30;20040;-90
2022/07/17 10:26:31;;;;;;;2.55;1.90;;;;;;;24.37;41.54;102877.91;4733132;30;20041;-92
2022/07/17 10:28:56;;;;;;;4.65;1.73;;;;;;;24.41;41.18;102879.25;4719362;30;20500;-89
2022/07/17 10:31:24;;;;;;;2.65;1.77;;;;;;;24.38;41.34;102876.91;4707079;30;20087;-90
2022/07/17 10:34:00;;;;;;;2.65;1.73;;;;;;;24.37;41.54;102880.56;4719973;30;21683;-90
2022/07/17 10:36:32;;;;;;;2.55;1.52;;;;;;;24.36;41.45;102870.91;4709715;30;20041;-89
2022/07/17 10:38:58;;;;;;;3.80;1.75;;;;;;;24.42;41.20;102878.28;4719613;30;20565;-89
2022/07/17 10:41:23;;;;;;;3.10;1.60;;;;;;;24.39;41.37;102882.06;4720983;30;20041;-88
2022/07/17 10:43:50;;;;;;;2.70;1.60;;;;;;;24.31;41.35;102874.06;4721644;30;20052;-87
2022/07/17 10:46:15;;;;;;;3.53;1.85;;;;;;;24.33;41.77;102873.91;4693439;30;20170;-87
2022/07/17 10:48:47;;;;;;;2.35;1.80;;;;;;;24.40;41.44;102875.75;4721569;30;20044;-88
2022/07/17 10:51:13;;;;;;;3.67;1.70;;;;;;;24.41;41.32;102877.41;4725012;30;20048;-88
2022/07/17 10:53:38;;;;;;;2.42;1.88;;;;;;;24.37;41.54;102872.56;4722580;30;20109;-88
2022/07/17 10:56:06;;;;;;;4.57;1.60;;;;;;;24.37;41.54;102875.22;4720227;30;20049;-88
2022/07/17 10:58:33;;;;;;;2.08;1.65;;;;;;;24.41;41.46;102873.91;4721544;30;20049;-88
2022/07/17 11:01:12;;;;;;;2.75;1.67;;;;;;;24.39;41.44;102876.75;4721157;30;20522;-89
2022/07/17 11:03:42;;;;;;;1.95;1.80;;;;;;;24.39;41.52;102875.91;4721564;30;20044;-89
2022/07/17 11:06:27;;;;;;;1.98;1.60;;;;;;;24.44;41.56;102883.44;4725198;30;20044;-89
2022/07/17 11:09:02;;;;;;;4.18;2.00;;;;;;;24.41;41.44;102884.56;4723290;30;20045;-87
2022/07/17 11:11:49;;;;;;;3.70;1.98;;;;;;;24.26;41.60;102864.84;4723596;30;20052;-89
2022/07/17 11:14:26;;;;;;;2.55;1.83;;;;;;;24.31;41.57;102859.91;4715616;30;20041;-88
2022/07/17 11:16:56;;;;;;;2.53;1.60;;;;;;;24.47;41.50;102883.09;4722284;30;20500;-88
2022/07/17 11:19:32;;;;;;;3.13;1.80;;;;;;;24.45;41.58;102877.94;4722371;30;20481;-87
2022/07/17 11:22:01;;;;;;;3.83;1.83;;;;;;;24.40;41.75;102885.56;4707742;30;20465;-88